createdAt,value
2023-09-12T00:01:39.532Z,18.80
2023-09-12T00:04:08.431Z,18.90
2023-09-12T00:06:36.830Z,18.55
2023-09-12T00:09:06.805Z,18.77
2023-09-12T00:11:35.134Z,18.33
2023-09-12T00:14:05.180Z,18.95
2023-09-12T00:16:33.488Z,18.80
2023-09-12T00:19:01.743Z,18.48
2023-09-12T00:21:30.104Z,19.55
2023-09-12T00:23:58.506Z,18.65
2023-09-12T00:26:26.844Z,18.88
2023-09-12T00:28:55.817Z,19.88
2023-09-12T00:31:25.615Z,18.77
2023-09-12T00:33:53.942Z,18.13
2023-09-12T00:36:22.200Z,17.92
2023-09-12T00:38:50.420Z,18.42
2023-09-12T00:41:20.099Z,18.30
2023-09-12T00:43:48.345Z,18.45
2023-09-12T00:46:21.670Z,18.05
2023-09-12T00:48:53.023Z,18.33
2023-09-12T00:51:23.666Z,18.85
2023-09-12T00:53:52.141Z,18.90
2023-09-12T00:56:20.500Z,19.15
2023-09-12T00:58:49.032Z,18.95
2023-09-12T01:01:17.427Z,19.58
2023-09-12T01:03:46.067Z,20.35
2023-09-12T01:06:17.391Z,19.70
2023-09-12T01:08:45.766Z,19.30
2023-09-12T01:11:15.975Z,20.00
2023-09-12T01:13:44.367Z,19.45
2023-09-12T01:16:12.787Z,19.73
2023-09-12T01:21:41.631Z,20.55
2023-09-12T01:24:36.241Z,21.08
2023-09-12T01:27:20.435Z,19.90
2023-09-12T01:29:51.684Z,20.77
2023-09-12T01:32:22.157Z,21.35
2023-09-12T01:34:50.467Z,21.77
2023-09-12T01:37:18.753Z,21.55
2023-09-12T01:39:47.143Z,21.67
2023-09-12T01:42:20.256Z,22.00
2023-09-12T01:44:52.175Z,20.83
2023-09-12T01:47:21.921Z,20.20
2023-09-12T01:49:54.837Z,21.33
2023-09-12T01:52:23.977Z,20.75
2023-09-12T01:54:53.328Z,20.95
2023-09-12T01:57:23.650Z,21.40
2023-09-12T01:59:52.091Z,21.80
2023-09-12T02:02:21.040Z,22.80
2023-09-12T02:05:01.604Z,22.02
2023-09-12T02:07:35.460Z,22.00
2023-09-12T02:10:04.132Z,21.85
2023-09-12T02:12:33.921Z,23.00
2023-09-12T02:15:02.439Z,21.60
2023-09-12T02:17:30.794Z,21.02
2023-09-12T02:19:59.116Z,21.70
2023-09-12T02:22:29.386Z,22.35
2023-09-12T02:24:57.818Z,21.35
2023-09-12T02:27:26.275Z,21.10
2023-09-12T02:29:57.047Z,21.63
2023-09-12T02:32:25.394Z,22.02
2023-09-12T02:34:54.527Z,22.83
2023-09-12T02:37:22.834Z,22.10
2023-09-12T02:39:51.138Z,21.63
2023-09-12T02:42:19.440Z,20.98
2023-09-12T02:44:48.889Z,22.27
2023-09-12T02:47:18.603Z,21.08
2023-09-12T02:49:46.881Z,23.17
2023-09-12T02:52:15.927Z,23.33
2023-09-12T02:54:47.113Z,23.20
2023-09-12T02:57:16.327Z,23.67
2023-09-12T02:59:44.675Z,23.63
2023-09-12T03:02:13.043Z,21.70
2023-09-12T03:04:43.109Z,22.73
2023-09-12T03:07:11.697Z,22.58
2023-09-12T03:09:40.437Z,21.08
2023-09-12T03:12:09.424Z,22.58
2023-09-12T03:14:38.816Z,22.30
2023-09-12T03:17:07.100Z,22.65
2023-09-12T03:19:36.174Z,23.42
2023-09-12T03:22:06.287Z,22.20
2023-09-12T03:24:34.880Z,22.55
2023-09-12T03:27:03.442Z,22.40
2023-09-12T03:29:32.365Z,22.42
2023-09-12T03:32:00.648Z,22.30
2023-09-12T03:34:28.961Z,21.73
2023-09-12T03:36:57.206Z,22.35
2023-09-12T03:39:27.341Z,22.50
2023-09-12T03:41:55.682Z,22.45
2023-09-12T03:44:24.059Z,22.80
2023-09-12T03:46:52.435Z,22.08
2023-09-12T03:49:20.706Z,22.30
2023-09-12T03:51:49.798Z,22.02
2023-09-12T03:54:18.114Z,22.20
2023-09-12T03:56:50.560Z,22.42
2023-09-12T03:59:19.243Z,21.88
2023-09-12T04:01:48.971Z,21.60
2023-09-12T04:04:18.618Z,22.38
2023-09-12T04:06:48.226Z,22.05
2023-09-12T04:09:16.877Z,21.67
2023-09-12T04:11:48.059Z,21.02
2023-09-12T04:14:17.194Z,21.10
2023-09-12T04:16:46.292Z,21.52
2023-09-12T04:19:16.464Z,22.60
2023-09-12T04:21:44.941Z,23.23
2023-09-12T04:24:13.441Z,21.77
2023-09-12T04:26:41.691Z,21.27
2023-09-12T04:29:11.291Z,21.98
2023-09-12T04:31:39.710Z,21.83
2023-09-12T04:34:08.436Z,22.02
2023-09-12T04:36:36.792Z,21.48
2023-09-12T04:39:06.357Z,21.65
2023-09-12T04:41:35.105Z,21.17
2023-09-12T04:44:03.426Z,20.95
2023-09-12T04:46:33.614Z,20.38
2023-09-12T04:49:01.944Z,22.15
2023-09-12T04:51:30.301Z,21.25
2023-09-12T04:53:58.589Z,19.38
2023-09-12T04:56:26.929Z,20.55
2023-09-12T04:58:55.333Z,20.23
2023-09-12T05:01:23.694Z,20.70
2023-09-12T05:03:53.461Z,20.42
2023-09-12T05:06:21.949Z,19.52
2023-09-12T05:08:50.338Z,20.83
2023-09-12T05:11:18.752Z,19.58
2023-09-12T05:13:47.039Z,20.17
2023-09-12T05:16:15.774Z,21.52
2023-09-12T05:18:44.804Z,20.25
2023-09-12T05:21:15.003Z,20.73
2023-09-12T05:23:43.432Z,20.17
2023-09-12T05:26:13.105Z,21.00
2023-09-12T05:28:41.612Z,20.20
2023-09-12T05:31:10.506Z,20.60
2023-09-12T05:33:39.356Z,20.75
2023-09-12T05:36:07.806Z,19.67
2023-09-12T05:38:37.724Z,21.20
2023-09-12T05:41:06.050Z,20.45
2023-09-12T05:43:34.441Z,19.48
2023-09-12T05:46:02.782Z,23.00
2023-09-12T05:48:31.256Z,23.33
2023-09-12T05:50:59.599Z,20.42
2023-09-12T05:53:27.883Z,20.77
2023-09-12T05:55:57.740Z,21.50
2023-09-12T05:58:26.879Z,19.00
2023-09-12T06:00:55.550Z,19.42
2023-09-12T06:03:24.306Z,17.60
2023-09-12T06:05:52.793Z,17.58
2023-09-12T06:08:21.202Z,17.33
2023-09-12T06:10:49.994Z,17.95
2023-09-12T06:13:19.735Z,17.05
2023-09-12T06:15:49.009Z,17.33
2023-09-12T06:18:17.445Z,19.13
2023-09-12T06:20:45.838Z,18.80
2023-09-12T06:23:14.149Z,17.13
2023-09-12T06:25:42.766Z,16.63
2023-09-12T06:28:12.316Z,16.90
2023-09-12T06:30:41.939Z,15.32
2023-09-12T06:33:10.315Z,14.48
2023-09-12T06:35:42.454Z,16.08
2023-09-12T06:38:11.499Z,16.08
2023-09-12T06:40:39.754Z,17.80
2023-09-12T06:43:08.089Z,17.00
2023-09-12T06:45:38.936Z,17.27
2023-09-12T06:48:09.255Z,17.48
2023-09-12T06:50:39.161Z,18.00
2023-09-12T06:53:08.274Z,17.73
2023-09-12T06:55:36.953Z,16.65
2023-09-12T06:58:05.846Z,17.35
2023-09-12T07:00:34.232Z,17.27
2023-09-12T07:03:02.720Z,17.65
2023-09-12T07:05:32.843Z,16.73
2023-09-12T07:08:02.312Z,16.15
2023-09-12T07:10:30.817Z,16.63
2023-09-12T07:13:00.527Z,16.25
2023-09-12T07:15:29.735Z,16.45
2023-09-12T07:18:00.718Z,15.90
2023-09-12T07:20:29.614Z,16.08
2023-09-12T07:22:59.674Z,16.58
2023-09-12T07:25:28.611Z,15.70
2023-09-12T07:27:57.127Z,14.25
2023-09-12T07:30:26.008Z,13.95
2023-09-12T07:32:54.882Z,14.90
2023-09-12T07:35:25.303Z,14.50
2023-09-12T07:37:54.085Z,13.73
2023-09-12T07:40:24.082Z,13.23
2023-09-12T07:42:52.565Z,14.20
2023-09-12T07:45:21.697Z,13.45
2023-09-12T07:47:50.457Z,12.80
2023-09-12T07:50:19.183Z,13.02
2023-09-12T07:52:47.781Z,11.45
2023-09-12T07:55:16.379Z,12.13
2023-09-12T07:57:46.720Z,12.82
2023-09-12T08:00:15.934Z,12.57
2023-09-12T08:02:44.502Z,12.73
2023-09-12T08:05:13.170Z,12.52
2023-09-12T08:07:41.717Z,12.07
2023-09-12T08:10:10.681Z,11.35
2023-09-12T08:12:41.840Z,12.52
2023-09-12T08:15:12.632Z,12.48
2023-09-12T08:17:41.782Z,12.32
2023-09-12T08:20:12.211Z,12.10
2023-09-12T08:22:41.092Z,12.60
2023-09-12T08:25:10.138Z,12.85
2023-09-12T08:27:38.747Z,12.93
2023-09-12T08:30:08.241Z,13.10
2023-09-12T08:32:40.601Z,13.00
2023-09-12T08:35:10.080Z,12.73
2023-09-12T08:37:38.548Z,12.25
2023-09-12T08:40:09.954Z,13.02
2023-09-12T08:42:42.938Z,13.02
2023-09-12T08:45:16.238Z,13.45
2023-09-12T08:47:48.425Z,12.00
2023-09-12T08:50:18.706Z,12.88
2023-09-12T08:53:05.464Z,12.52
2023-09-12T08:55:37.926Z,13.43
2023-09-12T08:58:08.175Z,12.43
2023-09-12T09:00:38.350Z,13.10
2023-09-12T09:03:09.044Z,12.40
2023-09-12T09:05:39.757Z,11.98
2023-09-12T09:08:10.140Z,12.55
2023-09-12T09:10:50.133Z,12.02
2023-09-12T09:13:20.518Z,11.50
2023-09-12T09:15:49.264Z,12.10
2023-09-12T09:18:19.704Z,10.90
2023-09-12T09:20:50.947Z,10.40
2023-09-12T09:23:19.533Z,11.02
2023-09-12T09:25:54.921Z,10.63
2023-09-12T09:28:24.852Z,11.43
2023-09-12T09:30:55.994Z,10.75
2023-09-12T09:33:26.521Z,10.48
2023-09-12T09:36:05.969Z,10.35
2023-09-12T09:38:36.495Z,10.27
2023-09-12T09:41:08.152Z,10.10
2023-09-12T09:43:36.797Z,9.98
2023-09-12T09:46:05.795Z,10.70
2023-09-12T09:48:36.234Z,10.20
2023-09-12T09:51:06.127Z,10.38
2023-09-12T09:53:35.640Z,10.45
2023-09-12T09:56:11.459Z,10.70
2023-09-12T09:58:44.415Z,9.25
2023-09-12T10:01:14.482Z,10.70
2023-09-12T10:03:47.189Z,9.60
2023-09-12T10:06:18.261Z,10.38
2023-09-12T10:08:47.700Z,10.43
2023-09-12T10:11:17.972Z,9.75
2023-09-12T10:13:51.759Z,10.10
2023-09-12T10:16:22.886Z,9.90
2023-09-12T10:19:02.367Z,10.27
2023-09-12T10:21:33.675Z,9.48
2023-09-12T10:24:04.993Z,9.93
2023-09-12T10:26:35.165Z,9.55
2023-09-12T10:29:05.811Z,9.82
2023-09-12T10:31:35.835Z,9.82
2023-09-12T10:34:07.835Z,9.52
2023-09-12T10:36:37.478Z,10.05
2023-09-12T10:39:07.567Z,10.50
2023-09-12T10:41:40.297Z,9.90
2023-09-12T10:44:12.658Z,9.60
2023-09-12T10:46:42.380Z,10.38
2023-09-12T10:49:13.956Z,9.80
2023-09-12T10:51:43.397Z,9.70
2023-09-12T10:54:16.235Z,10.18
2023-09-12T10:56:46.061Z,9.65
2023-09-12T10:59:16.465Z,10.48
2023-09-12T11:01:48.491Z,10.18
2023-09-12T11:04:35.924Z,9.70
2023-09-12T11:07:24.651Z,10.48
2023-09-12T11:10:21.159Z,10.25
2023-09-12T11:12:52.317Z,9.60
2023-09-12T11:15:22.564Z,10.05
2023-09-12T11:17:52.213Z,9.55
2023-09-12T11:20:22.269Z,10.45
2023-09-12T11:22:53.771Z,9.55
2023-09-12T11:25:25.104Z,11.55
2023-09-12T11:28:07.489Z,10.32
2023-09-12T11:30:36.106Z,10.48
2023-09-12T11:33:08.070Z,10.60
2023-09-12T11:35:42.117Z,10.10
2023-09-12T11:38:13.628Z,10.15
2023-09-12T11:40:47.240Z,10.70
2023-09-12T11:43:26.244Z,10.63
2023-09-12T11:45:56.416Z,13.50
2023-09-12T11:48:25.116Z,10.60
2023-09-12T11:50:56.808Z,10.63
2023-09-12T11:53:28.274Z,10.75
2023-09-12T11:55:59.587Z,10.13
2023-09-12T11:58:29.491Z,10.63
2023-09-12T12:01:00.047Z,10.38
2023-09-12T12:03:38.812Z,11.13
2023-09-12T12:06:09.636Z,10.77
2023-09-12T12:08:38.815Z,10.57
2023-09-12T12:11:09.516Z,10.88
2023-09-12T12:13:38.031Z,11.20
2023-09-12T12:16:18.068Z,10.70
2023-09-12T12:18:46.824Z,11.25
2023-09-12T12:21:17.146Z,11.05
2023-09-12T12:23:46.011Z,10.93
2023-09-12T12:26:15.058Z,10.57
2023-09-12T12:28:43.794Z,11.18
2023-09-12T12:31:12.726Z,10.68
2023-09-12T12:34:12.527Z,11.15
2023-09-12T12:36:32.591Z,10.43
2023-09-12T12:39:02.508Z,10.05
2023-09-12T12:41:45.923Z,10.98
2023-09-12T12:44:18.779Z,10.20
2023-09-12T12:46:54.445Z,10.18
2023-09-12T12:49:24.428Z,10.18
2023-09-12T12:51:57.131Z,10.85
2023-09-12T12:54:25.650Z,10.70
2023-09-12T12:56:54.903Z,10.70
2023-09-12T12:59:23.221Z,11.23
2023-09-12T13:01:53.361Z,11.40
2023-09-12T13:04:23.230Z,11.60
2023-09-12T13:06:53.167Z,11.57
2023-09-12T13:09:21.710Z,10.75
2023-09-12T13:11:50.143Z,11.52
2023-09-12T13:14:20.471Z,11.48
2023-09-12T13:16:48.874Z,12.35
2023-09-12T13:19:17.268Z,12.73
2023-09-12T13:21:45.598Z,11.25
2023-09-12T13:24:16.741Z,11.50
2023-09-12T13:26:45.440Z,11.57
2023-09-12T13:29:14.816Z,11.80
2023-09-12T13:31:43.178Z,11.93
2023-09-12T13:34:11.488Z,11.40
2023-09-12T13:36:39.903Z,12.60
2023-09-12T13:39:09.342Z,12.60
2023-09-12T13:41:40.338Z,13.15
2023-09-12T13:44:10.140Z,12.55
2023-09-12T13:46:38.552Z,11.77
2023-09-12T13:49:07.033Z,11.57
2023-09-12T13:51:35.409Z,11.90
2023-09-12T13:54:04.260Z,12.40
2023-09-12T13:56:33.071Z,12.30
2023-09-12T13:59:06.592Z,11.98
2023-09-12T14:01:38.572Z,12.55
2023-09-12T14:04:07.469Z,12.77
2023-09-12T14:06:37.559Z,12.07
2023-09-12T14:09:08.056Z,12.27
2023-09-12T14:11:51.149Z,12.40
2023-09-12T14:14:26.199Z,13.13
2023-09-12T14:17:00.808Z,11.98
2023-09-12T14:19:31.325Z,12.38
2023-09-12T14:22:00.029Z,12.55
2023-09-12T14:24:29.828Z,12.65
2023-09-12T14:26:58.423Z,13.63
2023-09-12T14:29:31.136Z,12.27
2023-09-12T14:31:59.918Z,11.73
2023-09-12T14:34:29.123Z,11.88
2023-09-12T14:36:57.926Z,11.48
2023-09-12T14:39:27.419Z,11.93
2023-09-12T14:41:55.997Z,12.90
2023-09-12T14:44:24.429Z,11.77
2023-09-12T14:46:55.493Z,11.00
2023-09-12T14:49:23.917Z,12.13
2023-09-12T14:51:52.270Z,12.02
2023-09-12T14:54:20.630Z,12.40
2023-09-12T14:56:48.946Z,12.82
2023-09-12T14:59:17.927Z,12.88
2023-09-12T15:01:46.453Z,12.32
2023-09-12T15:04:16.410Z,12.70
2023-09-12T15:06:44.914Z,13.27
2023-09-12T15:09:14.313Z,12.75
2023-09-12T15:11:42.638Z,12.63
2023-09-12T15:14:10.911Z,12.70
2023-09-12T15:16:39.638Z,13.48
2023-09-12T15:19:07.991Z,12.70
2023-09-12T15:21:38.302Z,12.93
2023-09-12T15:24:07.137Z,12.10
2023-09-12T15:26:36.778Z,13.00
2023-09-12T15:29:05.506Z,12.90
2023-09-12T15:31:34.064Z,12.85
2023-09-12T15:34:02.569Z,12.88
2023-09-12T15:36:31.223Z,13.85
2023-09-12T15:39:01.151Z,13.55
2023-09-12T15:41:29.623Z,13.90
2023-09-12T15:44:13.418Z,12.80
2023-09-12T15:46:43.633Z,13.05
2023-09-12T15:49:12.836Z,13.45
2023-09-12T15:51:41.377Z,13.95
2023-09-12T15:54:11.347Z,12.70
2023-09-12T15:56:39.750Z,13.88
2023-09-12T15:59:08.115Z,14.18
2023-09-12T16:01:36.605Z,14.55
2023-09-12T16:04:05.391Z,14.13
2023-09-12T16:06:33.842Z,13.75
2023-09-12T16:09:02.093Z,14.75
2023-09-12T16:11:32.332Z,13.30
2023-09-12T16:14:00.614Z,13.48
2023-09-12T16:16:29.036Z,13.48
2023-09-12T16:18:57.577Z,13.32
2023-09-12T16:21:26.393Z,13.75
2023-09-12T16:23:56.248Z,13.13
2023-09-12T16:26:25.104Z,13.10
2023-09-12T16:28:54.853Z,13.98
2023-09-12T16:31:23.276Z,14.13
2023-09-12T16:33:51.691Z,13.68
2023-09-12T16:36:20.125Z,13.40
2023-09-12T16:38:48.466Z,13.57
2023-09-12T16:41:16.875Z,13.98
2023-09-12T16:43:45.518Z,13.02
2023-09-12T16:46:15.470Z,14.30
2023-09-12T16:48:44.285Z,14.43
2023-09-12T16:51:13.204Z,14.05
2023-09-12T16:53:42.720Z,14.77
2023-09-12T16:56:11.477Z,14.73
2023-09-12T16:58:39.853Z,14.43
2023-09-12T17:01:08.228Z,14.75
2023-09-12T17:03:38.067Z,13.90
2023-09-12T17:06:06.974Z,14.95
2023-09-12T17:08:35.342Z,14.43
2023-09-12T17:11:04.642Z,15.80
2023-09-12T17:13:33.118Z,15.23
2023-09-12T17:16:01.983Z,14.00
2023-09-12T17:18:33.454Z,15.07
2023-09-12T17:21:04.662Z,15.57
2023-09-12T17:23:33.354Z,15.00
2023-09-12T17:26:01.711Z,15.30
2023-09-12T17:28:30.001Z,15.15
2023-09-12T17:30:58.417Z,14.75
2023-09-12T17:33:26.937Z,14.30
2023-09-12T17:35:55.266Z,15.13
2023-09-12T17:38:24.949Z,15.05
2023-09-12T17:40:53.289Z,15.02
2023-09-12T17:43:21.661Z,15.57
2023-09-12T17:46:04.023Z,15.65
2023-09-12T17:48:40.830Z,15.75
2023-09-12T17:51:09.360Z,15.40
2023-09-12T17:53:39.239Z,15.10
2023-09-12T17:56:08.267Z,15.48
2023-09-12T17:58:36.563Z,16.00
2023-09-12T18:01:06.114Z,15.73
2023-09-12T18:03:34.837Z,16.67
2023-09-12T18:06:04.161Z,15.75
2023-09-12T18:08:32.506Z,16.80
2023-09-12T18:11:04.494Z,15.73
2023-09-12T18:13:32.924Z,15.52
2023-09-12T18:16:01.403Z,18.15
2023-09-12T18:18:30.139Z,15.98
2023-09-12T18:20:58.800Z,16.63
2023-09-12T18:23:27.179Z,16.48
2023-09-12T18:25:57.033Z,16.23
2023-09-12T18:28:42.777Z,15.55
2023-09-12T18:31:12.646Z,17.05
2023-09-12T18:33:41.996Z,17.45
2023-09-12T18:36:11.841Z,16.60
2023-09-12T18:38:42.864Z,15.98
2023-09-12T18:41:12.574Z,15.77
2023-09-12T18:43:46.462Z,17.10
2023-09-12T18:46:16.042Z,17.02
2023-09-12T18:48:45.011Z,16.50
2023-09-12T18:51:13.384Z,16.73
2023-09-12T18:53:42.346Z,17.08
2023-09-12T18:56:10.983Z,17.13
2023-09-12T18:58:39.792Z,16.60
2023-09-12T19:01:11.689Z,17.65
2023-09-12T19:03:41.732Z,17.67
2023-09-12T19:06:10.577Z,19.08
2023-09-12T19:08:42.762Z,18.15
2023-09-12T19:11:11.888Z,18.60
2023-09-12T19:13:42.979Z,19.05
2023-09-12T19:16:14.641Z,18.52
2023-09-12T19:18:43.296Z,18.73
2023-09-12T19:21:12.168Z,18.30
2023-09-12T19:23:40.700Z,18.67
2023-09-12T19:26:09.171Z,18.92
2023-09-12T19:28:37.713Z,19.65
2023-09-12T19:31:06.282Z,18.60
2023-09-12T19:33:36.374Z,19.35
2023-09-12T19:36:05.332Z,18.38
2023-09-12T19:38:33.841Z,18.95
2023-09-12T19:41:02.641Z,18.52
2023-09-12T19:43:31.473Z,18.58
2023-09-12T19:46:04.232Z,19.35
2023-09-12T19:48:33.172Z,19.48
2023-09-12T19:51:03.544Z,19.63
2023-09-12T19:53:32.972Z,19.77
2023-09-12T19:56:01.764Z,19.20
2023-09-12T19:58:30.951Z,19.30
2023-09-12T20:01:01.900Z,19.00
2023-09-12T20:03:30.580Z,19.40
2023-09-12T20:05:59.174Z,20.83
2023-09-12T20:08:29.080Z,19.83
2023-09-12T20:10:59.056Z,20.75
2023-09-12T20:13:27.558Z,20.92
2023-09-12T20:15:56.128Z,21.05
2023-09-12T20:18:25.244Z,20.77
2023-09-12T20:20:55.970Z,19.83
2023-09-12T20:23:24.640Z,20.85
2023-09-12T20:25:54.830Z,20.90
2023-09-12T20:28:23.195Z,21.33
2023-09-12T20:30:51.582Z,21.52
2023-09-12T20:33:20.290Z,21.83
2023-09-12T20:35:48.921Z,19.83
2023-09-12T20:38:17.190Z,20.80
2023-09-12T20:40:46.367Z,19.70
2023-09-12T20:43:17.709Z,20.58
2023-09-12T20:45:46.947Z,20.70
2023-09-12T20:48:17.037Z,20.90
2023-09-12T20:50:47.028Z,20.73
2023-09-12T20:53:18.235Z,20.88
2023-09-12T20:55:47.027Z,21.38
2023-09-12T20:58:19.748Z,20.48
2023-09-12T21:00:48.734Z,20.92
2023-09-12T21:03:19.379Z,20.55
2023-09-12T21:05:49.927Z,20.60
2023-09-12T21:08:19.172Z,21.65
2023-09-12T21:10:48.376Z,20.58
2023-09-12T21:13:18.329Z,21.17
2023-09-12T21:15:47.136Z,21.83
2023-09-12T21:18:15.681Z,22.27
2023-09-12T21:20:44.245Z,21.30
2023-09-12T21:23:12.742Z,21.98
2023-09-12T21:25:41.238Z,22.10
2023-09-12T21:28:09.623Z,21.92
2023-09-12T21:30:40.066Z,23.35
2023-09-12T21:33:08.902Z,21.60
2023-09-12T21:35:37.341Z,21.98
2023-09-12T21:38:05.992Z,22.83
2023-09-12T21:40:34.439Z,21.60
2023-09-12T21:43:03.347Z,20.85
2023-09-12T21:45:32.888Z,22.70
2023-09-12T21:48:02.967Z,21.35
2023-09-12T21:50:33.942Z,22.17
2023-09-12T21:53:02.372Z,22.35
2023-09-12T21:55:30.949Z,21.27
2023-09-12T21:57:59.592Z,21.45
2023-09-12T22:00:29.925Z,23.15
2023-09-12T22:02:59.083Z,23.25
2023-09-12T22:05:29.203Z,22.15
2023-09-12T22:07:57.576Z,21.83
2023-09-12T22:10:26.125Z,23.25
2023-09-12T22:12:56.354Z,23.85
2023-09-12T22:15:24.866Z,23.10
2023-09-12T22:17:53.295Z,23.42
2023-09-12T22:20:22.018Z,23.17
2023-09-12T22:22:51.939Z,23.25
2023-09-12T22:25:20.590Z,24.02
2023-09-12T22:27:51.019Z,24.98
2023-09-12T22:30:19.359Z,25.65
2023-09-12T22:32:47.809Z,23.45
2023-09-12T22:35:16.198Z,24.00
2023-09-12T22:37:44.710Z,24.02
2023-09-12T22:40:14.839Z,24.67
2023-09-12T22:42:43.848Z,23.33
2023-09-12T22:45:12.747Z,24.35
2023-09-12T22:47:41.799Z,24.23
2023-09-12T22:50:11.309Z,23.58
2023-09-12T22:52:40.072Z,25.45
2023-09-12T22:55:09.149Z,24.15
2023-09-12T22:57:39.148Z,23.70
2023-09-12T23:00:10.853Z,24.42
2023-09-12T23:02:39.757Z,23.88
2023-09-12T23:05:08.848Z,25.35
2023-09-12T23:07:37.481Z,24.85
2023-09-12T23:10:06.402Z,24.88
2023-09-12T23:12:35.326Z,25.17
2023-09-12T23:15:06.429Z,24.95
2023-09-12T23:17:35.054Z,25.50
2023-09-12T23:20:07.129Z,24.58
2023-09-12T23:22:35.696Z,27.00
2023-09-12T23:25:05.840Z,25.90
2023-09-12T23:27:34.666Z,25.73
2023-09-12T23:30:04.863Z,26.45
2023-09-12T23:32:33.686Z,25.70
2023-09-12T23:35:02.360Z,25.65
2023-09-12T23:37:31.904Z,24.73
2023-09-12T23:40:00.532Z,26.70
2023-09-12T23:42:29.012Z,26.42
2023-09-12T23:44:57.400Z,24.42
2023-09-12T23:47:27.229Z,26.48
2023-09-12T23:49:55.635Z,25.30
2023-09-12T23:52:24.130Z,26.27
2023-09-12T23:54:52.827Z,26.25
2023-09-12T23:57:22.272Z,26.98
2023-09-12T23:59:51.045Z,27.42
